Time;durP1;ratioP1;P1;durP2;ratioP2;P2;SDS_P1;SDS_P2;PMS_P1;PMS_P2;Temp;Humidity;BMP_temperature;BMP_pressure;BME280_temperature;BME280_humidity;BME280_pressure;Samples;Min_cycle;Max_cycle;Signal;HPM_P1;HPM_P2
2024/04/20 00:00:09;;;;;;;2.58;1.13;;;4.70;99.90;;;3.07;100.00;100236.03;5165127;27;20023;-83
2024/04/20 00:02:44;;;;;;;10.30;1.38;;;4.70;99.90;;;3.13;100.00;100245.41;5146386;27;20015;-83
2024/04/20 00:05:11;;;;;;;4.53;1.27;;;4.70;99.90;;;3.14;100.00;100249.75;5149870;27;20350;-85
2024/04/20 00:07:45;;;;;;;3.10;1.20;;;4.70;99.90;;;3.04;100.00;100249.09;5153231;27;20008;-82
2024/04/20 00:10:10;;;;;;;4.28;1.35;;;4.70;99.90;;;3.15;100.00;100261.84;5117816;27;20020;-83
2024/04/20 00:12:36;;;;;;;3.10;1.25;;;4.70;99.90;;;3.08;100.00;100261.13;5103800;27;20027;-82
2024/04/20 00:15:02;;;;;;;4.57;1.40;;;4.70;99.90;;;3.10;100.00;100268.91;5098454;27;20021;-85
2024/04/20 00:17:28;;;;;;;9.32;1.23;;;4.70;99.90;;;3.05;100.00;100262.06;5067868;27;20004;-83
2024/04/20 00:19:54;;;;;;;2.83;1.13;;;4.70;99.90;;;3.03;100.00;100271.66;5090639;27;20066;-82
2024/04/20 00:22:27;;;;;;;5.45;1.45;;;4.70;99.90;;;3.18;100.00;100278.25;5060011;27;20027;-82
2024/04/20 00:24:53;;;;;;;5.15;1.33;;;4.80;99.90;;;3.23;100.00;100283.34;5101550;27;20018;-82
2024/04/20 00:27:19;;;;;;;4.13;1.55;;;4.80;99.90;;;3.18;100.00;100278.25;5144148;27;20027;-83
2024/04/20 00:29:45;;;;;;;4.07;1.52;;;4.70;99.90;;;3.15;100.00;100293.91;5164138;27;20019;-83
2024/04/20 00:32:19;;;;;;;7.35;2.00;;;4.80;99.90;;;3.25;100.00;100299.78;5074237;27;20018;-83
2024/04/20 00:34:45;;;;;;;7.72;1.88;;;4.80;99.90;;;3.17;100.00;100292.13;5240031;27;20667;-82
2024/04/20 00:37:11;;;;;;;4.07;1.60;;;4.80;99.90;;;3.06;100.00;100297.56;5183910;27;20026;-82
2024/04/20 00:39:37;;;;;;;5.57;1.80;;;4.70;99.90;;;3.10;100.00;100306.19;5145668;27;20014;-83
2024/04/20 00:42:12;;;;;;;4.90;1.75;;;4.70;99.90;;;3.03;100.00;100318.47;5164851;27;20004;-82
2024/04/20 00:44:38;;;;;;;3.58;1.67;;;4.70;99.90;;;3.10;100.00;100316.59;5157848;27;20009;-83
2024/04/20 00:47:06;;;;;;;3.88;1.65;;;4.70;99.90;;;3.00;100.00;100318.53;5171640;27;20011;-82
2024/04/20 00:49:36;;;;;;;3.13;1.85;;;4.70;99.90;;;3.05;100.00;100321.91;5195449;27;20007;-84
2024/04/20 00:52:10;;;;;;;5.43;2.45;;;4.70;99.90;;;2.97;100.00;100321.19;5123021;27;20015;-83
2024/04/20 00:54:44;;;;;;;4.25;1.88;;;4.70;99.90;;;3.08;100.00;100328.78;5152595;27;20026;-83
2024/04/20 00:57:13;;;;;;;9.02;2.30;;;4.70;99.90;;;3.07;100.00;100333.13;5176361;27;20018;-84
2024/04/20 00:59:47;;;;;;;5.82;2.08;;;4.70;99.90;;;3.16;100.00;100337.25;5160346;27;20545;-84
2024/04/20 01:02:13;;;;;;;4.72;2.15;;;4.70;99.90;;;3.14;100.00;100335.59;5141088;27;20003;-82
2024/04/20 01:04:39;;;;;;;9.75;2.75;;;4.70;99.90;;;3.18;100.00;100345.03;5151327;27;20124;-82
2024/04/20 01:07:05;;;;;;;7.50;2.20;;;4.80;99.90;;;3.11;100.00;100354.72;5171694;27;19998;-83
2024/04/20 01:09:40;;;;;;;5.65;2.20;;;4.70;99.90;;;2.97;100.00;100349.81;5180637;27;20069;-82
2024/04/20 01:12:06;;;;;;;4.45;1.90;;;4.70;99.90;;;3.02;100.00;100357.50;5153681;27;20490;-83
2024/04/20 01:14:43;;;;;;;5.00;2.50;;;4.70;99.90;;;3.07;100.00;100366.94;5135841;27;20018;-82
2024/04/20 01:17:09;;;;;;;3.85;2.08;;;4.70;99.90;;;2.95;100.00;100371.53;5102487;27;20016;-82
2024/04/20 01:19:35;;;;;;;4.88;2.45;;;4.70;99.90;;;3.01;100.00;100369.66;5165180;27;20004;-83
2024/04/20 01:22:11;;;;;;;13.35;1.88;;;4.70;99.90;;;3.03;100.00;100383.50;5156603;27;19999;-82
2024/04/20 01:24:37;;;;;;;6.53;2.38;;;4.60;99.90;;;2.98;100.00;100372.34;5163361;27;20013;-82
2024/04/20 01:27:03;;;;;;;4.30;1.90;;;4.70;99.90;;;3.03;100.00;100373.09;5190387;27;20008;-82
2024/04/20 01:29:29;;;;;;;4.97;2.20;;;4.70;99.90;;;3.02;100.00;100391.31;5170063;27;20008;-84
2024/04/20 01:32:02;;;;;;;5.40;2.22;;;4.70;99.90;;;2.98;100.00;100393.16;5182075;27;20011;-82
2024/04/20 01:34:27;;;;;;;5.65;1.75;;;4.70;99.90;;;2.93;100.00;100391.53;5197960;27;19999;-84
2024/04/20 01:36:53;;;;;;;4.22;2.00;;;4.60;99.90;;;2.88;100.00;100396.81;5175247;27;20014;-83
2024/04/20 01:39:22;;;;;;;4.30;2.25;;;4.60;99.90;;;3.01;100.00;100403.47;5184800;27;20026;-83
2024/04/20 01:41:54;;;;;;;4.72;2.20;;;;;;;3.04;100.00;100405.16;5129207;27;20010;-82
2024/04/20 01:44:20;;;;;;;4.22;1.98;;;4.70;99.90;;;3.03;100.00;100414.72;5158694;27;20011;-82
2024/04/20 01:46:45;;;;;;;4.07;1.85;;;4.70;99.90;;;2.90;100.00;100413.25;5155789;27;20029;-82
2024/04/20 01:49:11;;;;;;;6.20;2.08;;;4.60;99.90;;;2.91;100.00;100414.94;5198452;27;20031;-84
2024/04/20 01:51:37;;;;;;;3.67;2.10;;;4.60;99.90;;;2.91;100.00;100430.56;5166911;27;20014;-83
2024/04/20 01:54:11;;;;;;;6.63;2.17;;;4.60;99.90;;;2.94;100.00;100434.84;5149914;27;20504;-84
2024/04/20 01:56:37;;;;;;;3.13;1.60;;;4.60;99.90;;;2.87;100.00;100434.97;5129988;27;20019;-84
2024/04/20 01:59:03;;;;;;;9.02;2.30;;;4.60;99.90;;;2.95;100.00;100447.81;5123335;27;20081;-82
2024/04/20 02:01:31;;;;;;;7.03;2.17;;;4.60;99.90;;;2.98;100.00;100442.56;5130581;27;20019;-85
2024/04/20 02:04:00;;;;;;;5.55;2.03;;;;;;;2.92;100.00;100447.03;5167328;27;20374;-83
2024/04/20 02:06:26;;;;;;;7.13;2.60;;;4.60;99.90;;;2.98;100.00;100449.50;5205962;27;20388;-82
2024/04/20 02:08:54;;;;;;;7.20;1.95;;;4.60;99.90;;;2.98;100.00;100457.28;5109535;27;20143;-85
2024/04/20 02:11:20;;;;;;;10.48;2.38;;;4.60;99.90;;;3.08;100.00;100462.28;5125517;27;20403;-83
2024/04/20 02:13:51;;;;;;;4.03;1.83;;;4.60;99.90;;;3.10;100.00;100477.03;5096357;27;20032;-82
2024/04/20 02:16:17;;;;;;;4.90;2.00;;;4.70;99.90;;;3.01;100.00;100471.09;5162871;27;20003;-83
2024/04/20 02:18:44;;;;;;;6.85;2.08;;;4.60;99.90;;;2.95;100.00;100479.03;5150819;27;20368;-82
2024/04/20 02:21:09;;;;;;;4.05;1.73;;;4.60;99.90;;;2.86;100.00;100481.81;5161580;27;20476;-84
2024/04/20 02:23:45;;;;;;;7.80;2.10;;;4.60;99.90;;;2.90;100.00;100485.22;5173524;27;20035;-83
2024/04/20 02:26:14;;;;;;;4.07;1.65;;;4.50;99.90;;;2.77;100.00;100484.59;5159661;27;20011;-83
2024/04/20 02:28:39;;;;;;;6.80;2.08;;;4.50;99.90;;;2.87;100.00;100493.91;5157912;27;20003;-83
2024/04/20 02:31:05;;;;;;;6.22;1.80;;;4.50;99.90;;;2.84;100.00;100501.78;5175848;27;20089;-82
2024/04/20 02:33:36;;;;;;;6.38;2.78;;;4.50;99.90;;;2.89;99.39;100502.53;5214085;27;20067;-84
2024/04/20 02:36:02;;;;;;;5.22;1.42;;;4.50;99.90;;;2.82;98.79;100487.94;5155022;27;20019;-84
2024/04/20 02:38:31;;;;;;;5.07;1.60;;;4.50;99.90;;;2.80;97.20;100506.16;5061236;27;20005;-84
2024/04/20 02:40:58;;;;;;;12.25;1.60;;;4.50;99.90;;;2.79;96.75;100524.44;5061367;27;20022;-83
2024/04/20 02:43:29;;;;;;;3.58;1.52;;;4.50;99.90;;;2.81;96.10;100518.31;5089226;27;20050;-82
2024/04/20 02:45:55;;;;;;;2.97;1.42;;;4.50;99.90;;;2.72;94.72;100508.06;5129099;27;20005;-82
2024/04/20 02:48:21;;;;;;;4.95;1.58;;;4.50;99.90;;;2.74;94.00;100527.06;5181019;27;20017;-85
2024/04/20 02:50:50;;;;;;;2.63;1.23;;;4.40;99.90;;;2.71;92.88;100529.75;5143357;27;20111;-83
2024/04/20 02:53:25;;;;;;;2.95;1.65;;;4.50;99.90;;;2.76;92.31;100540.06;5103105;27;20005;-83
2024/04/20 02:55:51;;;;;;;5.60;1.40;;;4.40;99.90;;;2.71;92.08;100540.16;5166306;27;20019;-83
2024/04/20 02:58:24;;;;;;;3.42;1.30;;;4.40;99.90;;;2.64;91.49;100544.59;5136332;27;20060;-83
2024/04/20 03:00:58;;;;;;;3.47;1.55;;;4.40;99.90;;;2.72;91.22;100554.00;5147503;27;20007;-84
2024/04/20 03:03:33;;;;;;;4.20;1.40;;;4.40;99.90;;;2.68;90.87;100550.63;5091949;27;20003;-83
2024/04/20 03:05:59;;;;;;;2.83;1.33;;;4.40;99.90;;;2.61;90.64;100557.66;5128579;27;20023;-85
2024/04/20 03:08:25;;;;;;;6.43;1.85;;;4.40;99.90;;;2.81;89.72;100565.13;5138414;27;20011;-81
2024/04/20 03:10:55;;;;;;;5.68;1.40;;;4.40;99.90;;;2.85;89.71;100568.50;5146358;27;20087;-83
2024/04/20 03:13:21;;;;;;;9.38;1.48;;;4.40;99.90;;;2.83;88.92;100571.16;5189975;27;20169;-83
2024/04/20 03:15:47;;;;;;;7.25;1.67;;;4.30;99.90;;;2.70;88.12;100566.16;5176082;27;20006;-82
2024/04/20 03:18:12;;;;;;;3.55;1.20;;;4.40;99.90;;;2.73;87.96;100566.13;5158093;27;20011;-84
2024/04/20 03:20:38;;;;;;;5.63;1.60;;;4.30;99.90;;;2.61;87.55;100575.84;5185970;27;20499;-84
2024/04/20 03:23:04;;;;;;;4.45;1.33;;;4.30;99.90;;;2.50;86.90;100580.34;5175837;27;20041;-84
2024/04/20 03:25:30;;;;;;;2.83;1.17;;;4.20;99.90;;;2.49;87.39;100581.25;5121460;27;20044;-84
2024/04/20 03:28:05;;;;;;;3.00;1.38;;;4.20;99.90;;;2.52;87.21;100588.97;5057875;27;20001;-82
2024/04/20 03:30:32;;;;;;;3.15;1.38;;;4.10;99.90;;;2.50;87.33;100593.34;5149251;27;20029;-84
2024/04/20 03:32:57;;;;;;;3.83;1.35;;;4.20;99.90;;;2.50;87.72;100597.69;5153113;27;20020;-82
2024/04/20 03:35:28;;;;;;;2.85;1.48;;;4.20;99.90;;;2.50;88.03;100608.09;5165967;27;20035;-84
2024/04/20 03:37:54;;;;;;;5.82;1.35;;;4.20;99.90;;;2.50;88.25;100616.72;5134626;27;20007;-82
2024/04/20 03:40:20;;;;;;;4.28;1.45;;;4.20;99.90;;;2.53;88.05;100626.22;5149733;27;20080;-82
2024/04/20 03:42:46;;;;;;;6.15;2.17;;;4.20;99.90;;;2.49;88.73;100622.81;5158596;27;20012;-82
2024/04/20 03:45:12;;;;;;;4.82;2.55;;;4.20;99.90;;;2.50;89.74;100634.91;5128531;27;20005;-84
2024/04/20 03:47:38;;;;;;;3.92;2.10;;;4.20;99.90;;;2.54;90.71;100630.56;5123911;27;20063;-82
2024/04/20 03:50:09;;;;;;;5.20;2.78;;;4.20;99.90;;;2.57;91.66;100640.88;5179321;27;20128;-83
2024/04/20 03:52:35;;;;;;;7.85;2.83;;;4.20;99.90;;;2.64;92.25;100638.19;5128036;27;20498;-84
2024/04/20 03:55:00;;;;;;;10.23;3.03;;;4.30;99.90;;;2.60;92.98;100644.31;5109738;27;20048;-84
2024/04/20 03:57:28;;;;;;;9.48;2.75;;;4.20;99.90;;;2.58;93.65;100653.88;5141267;27;20016;-82
2024/04/20 04:00:11;;;;;;;;;;;;;;;;;;;;;
2024/04/20 04:02:40;;;;;;;9.45;3.13;;;4.30;99.90;;;2.67;94.43;100658.06;5114695;27;20498;-83
2024/04/20 04:05:06;;;;;;;5.53;3.00;;;4.30;99.90;;;2.71;94.33;100664.09;5131047;27;20024;-83
2024/04/20 04:07:32;;;;;;;5.63;2.70;;;4.30;99.90;;;2.75;94.35;100671.81;5125992;27;20017;-84
2024/04/20 04:10:00;;;;;;;10.65;2.28;;;4.40;99.90;;;2.79;93.99;100677.84;5126833;27;20370;-83
2024/04/20 04:12:26;;;;;;;7.13;2.08;;;4.40;99.90;;;2.73;93.83;100676.19;5097317;27;20024;-82
2024/04/20 04:14:59;;;;;;;2.95;2.00;;;4.40;99.90;;;2.80;93.51;100684.75;5122290;27;20777;-84
2024/04/20 04:17:24;;;;;;;5.40;2.05;;;4.40;99.90;;;2.79;93.30;100691.69;5075282;27;20041;-83
2024/04/20 04:19:50;;;;;;;7.00;2.42;;;4.40;99.90;;;2.73;93.86;100696.13;5133303;27;20003;-84
2024/04/20 04:22:16;;;;;;;6.90;2.13;;;4.40;99.90;;;2.74;93.10;100708.25;5159635;27;20367;-83
2024/04/20 04:24:50;;;;;;;5.20;2.22;;;4.40;99.90;;;2.63;94.01;100708.41;5097897;27;20008;-84
2024/04/20 04:27:16;;;;;;;2.58;1.98;;;4.30;99.90;;;2.44;95.15;100703.47;5119441;27;20071;-83
2024/04/20 04:29:42;;;;;;;5.15;2.45;;;4.20;99.90;;;2.45;95.71;100704.31;5150380;27;20015;-85
2024/04/20 04:32:09;;;;;;;5.45;2.90;;;4.20;99.90;;;2.43;96.05;100706.06;5123067;27;20014;-83
2024/04/20 04:34:44;;;;;;;6.13;2.65;;;4.20;99.90;;;2.41;96.64;100711.28;5155177;27;20015;-83
2024/04/20 04:37:10;;;;;;;7.18;3.15;;;4.10;99.90;;;2.47;96.59;100718.16;5179544;27;20017;-84
2024/04/20 04:39:36;;;;;;;10.63;3.20;;;4.10;99.90;;;2.47;96.96;100710.34;5213015;27;20007;-83
2024/04/20 04:42:02;;;;;;;10.68;3.58;;;4.10;99.90;;;2.47;97.32;100719.00;5138703;27;20023;-84
2024/04/20 04:44:37;;;;;;;6.43;3.15;;;4.20;99.90;;;2.53;97.20;100727.59;5120879;27;20019;-84
2024/04/20 04:47:05;;;;;;;9.32;3.72;;;;;;;2.53;97.70;100725.88;5176047;27;20452;-84
2024/04/20 04:49:37;;;;;;;9.45;3.90;;;4.20;99.90;;;2.62;97.60;100730.09;5199846;27;20019;-83
2024/04/20 04:52:03;;;;;;;8.23;3.67;;;4.20;99.90;;;2.69;97.63;100741.25;5182672;27;20022;-84
2024/04/20 04:54:28;;;;;;;8.18;3.42;;;4.30;99.90;;;2.72;97.85;100747.28;5204189;27;20002;-83
2024/04/20 04:56:55;;;;;;;9.85;3.97;;;4.30;99.90;;;2.76;97.64;100743.72;5130560;27;20011;-85
2024/04/20 04:59:22;;;;;;;7.78;3.60;;;4.30;99.90;;;2.74;97.74;100750.69;5120359;27;20007;-84
2024/04/20 05:01:55;;;;;;;8.10;3.13;;;4.40;99.90;;;2.78;97.31;100756.72;5143335;27;20006;-83
2024/04/20 05:04:21;;;;;;;9.90;3.45;;;3.80;99.90;;;2.78;96.74;100761.91;5143370;27;20016;-84
2024/04/20 05:06:48;;;;;;;7.07;2.97;;;4.40;99.90;;;2.80;95.97;100766.22;5125420;27;19996;-82
2024/04/20 05:09:23;;;;;;;6.32;3.30;;;;;;;2.83;95.00;100771.38;5134237;27;20104;-82
2024/04/20 05:11:49;;;;;;;7.35;3.00;;;4.50;99.90;;;2.94;95.00;100773.84;5139935;27;20474;-83
2024/04/20 05:14:15;;;;;;;6.80;3.15;;;4.50;99.90;;;2.99;94.67;100782.44;5230319;27;20010;-82
2024/04/20 05:16:41;;;;;;;5.05;2.33;;;4.60;99.90;;;2.97;94.25;100784.19;5133860;27;20010;-84
2024/04/20 05:19:14;;;;;;;5.03;2.72;;;4.60;99.90;;;2.95;93.03;100791.16;5161312;27;20094;-82
2024/04/20 05:21:40;;;;;;;6.40;2.40;;;4.60;99.90;;;2.91;92.69;100793.81;5160492;27;20497;-83
2024/04/20 05:24:07;;;;;;;8.13;2.92;;;4.60;99.90;;;3.00;92.04;100794.56;5137891;27;20014;-82
2024/04/20 05:26:33;;;;;;;2.35;1.55;;;4.60;99.90;;;2.99;92.15;100797.19;5167090;27;20044;-85
2024/04/20 05:29:10;;;;;;;2.92;1.55;;;;;;;2.97;91.22;100802.41;5162664;27;20066;-84
2024/04/20 05:31:36;;;;;;;2.53;1.58;;;4.60;99.90;;;2.93;90.20;100803.31;5185690;27;20018;-82
2024/04/20 05:34:01;;;;;;;2.72;1.45;;;4.60;99.90;;;2.93;89.77;100807.66;5164071;27;20084;-82
2024/04/20 05:36:34;;;;;;;2.05;1.13;;;4.60;99.90;;;3.01;88.86;100817.09;5191239;27;20389;-82
2024/04/20 05:39:03;;;;;;;4.65;1.30;;;4.60;99.90;;;2.94;88.68;100820.66;5181594;27;20011;-84
2024/04/20 05:41:29;;;;;;;7.10;1.70;;;4.60;99.90;;;2.93;87.32;100823.28;5126972;27;20361;-84
2024/04/20 05:44:00;;;;;;;3.75;1.60;;;;;;;3.00;87.15;100835.31;5153495;27;20083;-83
2024/04/20 05:46:26;;;;;;;6.28;1.85;;;4.70;99.90;;;3.08;87.00;100839.53;5171481;27;20015;-82
2024/04/20 05:48:53;;;;;;;5.55;1.80;;;4.70;99.90;;;3.14;86.87;100851.59;5258733;27;19999;-83
2024/04/20 05:51:19;;;;;;;6.93;1.95;;;4.70;99.90;;;3.13;87.16;100857.66;5142583;27;20427;-84
2024/04/20 05:53:45;;;;;;;4.45;1.60;;;4.70;99.90;;;3.08;86.47;100862.09;5107711;27;20044;-84
2024/04/20 05:56:18;;;;;;;3.30;1.30;;;4.70;99.90;;;3.04;86.67;100850.00;5131937;27;20012;-84
2024/04/20 05:58:46;;;;;;;7.25;1.80;;;4.70;99.90;;;3.07;86.38;100866.44;5096950;27;20473;-82
2024/04/20 06:01:12;;;;;;;4.68;2.25;;;4.70;99.90;;;3.14;86.21;100868.97;5195810;27;20007;-84
2024/04/20 06:03:46;;;;;;;5.30;2.03;;;4.80;99.90;;;3.20;86.40;100882.75;5184064;27;20482;-83
2024/04/20 06:06:12;;;;;;;6.25;1.95;;;4.80;99.90;;;3.28;86.69;100883.50;5171097;27;20022;-83
2024/04/20 06:08:37;;;;;;;5.18;1.92;;;4.80;99.90;;;3.34;86.85;100887.75;5170164;27;20013;-83
2024/04/20 06:11:05;;;;;;;5.75;2.50;;;4.90;99.90;;;3.42;86.86;100891.09;5163134;27;20022;-84
2024/04/20 06:13:36;;;;;;;7.43;2.03;;;4.90;99.90;;;3.50;87.33;100896.22;5154137;27;20454;-84
2024/04/20 06:16:02;;;;;;;4.85;1.90;;;5.00;99.90;;;3.47;87.64;100899.69;5133284;27;20071;-84
2024/04/20 06:18:33;;;;;;;5.78;2.05;;;5.00;99.90;;;3.42;87.75;100911.94;5163559;27;20018;-83
2024/04/20 06:21:04;;;;;;;5.47;2.28;;;5.00;99.90;;;3.45;87.69;100913.63;5149239;27;20134;-83
2024/04/20 06:23:34;;;;;;;4.78;1.90;;;4.90;99.90;;;3.39;87.69;100917.19;5137112;27;20003;-83
2024/04/20 06:26:00;;;;;;;4.32;1.90;;;5.00;99.90;;;3.41;87.71;100925.84;5153818;27;21274;-84
2024/04/20 06:28:26;;;;;;;6.80;1.92;;;5.00;99.90;;;3.47;88.15;100924.88;5116291;27;20096;-81
2024/04/20 06:30:58;;;;;;;6.25;2.58;;;5.00;99.90;;;3.46;88.00;100929.22;5195534;27;20019;-84
2024/04/20 06:33:27;;;;;;;4.47;1.80;;;5.00;99.90;;;3.54;88.08;100941.25;5165632;27;20010;-82
2024/04/20 06:35:53;;;;;;;5.03;1.90;;;5.10;99.90;;;3.49;87.81;100942.19;5125724;27;20008;-85
2024/04/20 06:38:24;;;;;;;7.25;1.60;;;5.10;99.90;;;3.44;87.17;100945.75;5132698;27;20008;-83
2024/04/20 06:40:52;;;;;;;6.53;1.58;;;5.10;99.90;;;3.42;86.24;100942.31;5173840;27;20017;-84
2024/04/20 06:43:18;;;;;;;3.10;1.52;;;5.00;99.90;;;3.37;87.02;100949.31;5149251;27;20532;-82
2024/04/20 06:45:44;;;;;;;7.97;1.67;;;5.00;99.90;;;3.32;86.73;100949.38;5191713;27;20011;-83
2024/04/20 06:48:09;;;;;;;4.22;1.42;;;5.00;99.90;;;3.28;86.56;100950.28;5175954;27;20022;-83
2024/04/20 06:50:42;;;;;;;6.65;1.73;;;4.90;99.90;;;3.26;86.07;100962.44;5165076;27;20018;-81
2024/04/20 06:53:08;;;;;;;5.38;1.55;;;4.90;99.90;;;3.27;85.20;100959.84;5172936;27;20007;-84
2024/04/20 06:55:34;;;;;;;1.92;1.00;;;4.90;99.90;;;3.20;84.64;100973.81;5163238;27;20565;-82
2024/04/20 06:58:00;;;;;;;2.30;1.20;;;4.90;99.90;;;3.28;82.96;100966.78;5148874;27;20014;-84
2024/04/20 07:00:26;;;;;;;1.45;1.00;;;5.00;99.90;;;3.42;82.34;100976.16;5155633;27;20026;-83
2024/04/20 07:03:03;;;;;;;2.53;1.38;;;5.00;99.90;;;3.56;82.42;100981.16;5164458;27;20030;-84
2024/04/20 07:05:45;;;;;;;2.00;1.23;;;5.20;99.90;;;3.72;82.59;100984.44;5122827;27;20016;-83
2024/04/20 07:08:22;;;;;;;2.00;0.85;;;5.20;99.90;;;3.60;82.17;100995.88;5133390;27;20007;-82
2024/04/20 07:10:59;;;;;;;;;;;5.20;99.90;;;3.52;80.87;100997.69;5171896;27;20556;-82
2024/04/20 07:13:31;;;;;;;3.53;1.30;;;5.20;99.90;;;3.53;80.98;101008.09;5192507;27;19931;-83
2024/04/20 07:16:07;;;;;;;3.75;1.42;;;5.20;99.90;;;3.53;80.69;101017.66;5150788;27;20048;-83
2024/04/20 07:18:34;;;;;;;2.20;1.40;;;5.20;99.90;;;3.45;80.97;101016.00;5154767;27;20078;-82
2024/04/20 07:21:07;;;;;;;3.88;1.13;;;5.10;99.90;;;3.45;81.09;101028.16;5145752;27;20015;-82
2024/04/20 07:23:47;;;;;;;;;;;;;;;;;;;;;
2024/04/20 07:29:15;;;;;;;;;;;;;;;;;;;;;
2024/04/20 07:36:33;;;;;;;;;;;;;;;;;;;;;
2024/04/20 07:39:45;;;;;;;;;;;;;;;;;;;;;
2024/04/20 08:13:55;;;;;;;;;;;;;;;;;;;;;
2024/04/20 08:22:24;;;;;;;;;;;;;;;;;;;;;
2024/04/20 08:25:34;;;;;;;;;;;;;;;;;;;;;
2024/04/20 08:28:16;;;;;;;;;;;;;;;;;;;;;
2024/04/20 08:36:26;;;;;;;;;;;;;;;;;;;;;
2024/04/20 08:51:03;;;;;;;1.15;0.88;;;;;;;4.18;72.22;101190.50;3724156;23;5003138;-84
2024/04/20 08:57:08;;;;;;;1.83;1.00;;;;;;;4.37;70.95;101216.34;4612074;24;5004321;-85
2024/04/20 09:00:45;;;;;;;;;;;;;;;;;;;;;
2024/04/20 09:11:16;;;;;;;1.95;1.00;;;6.30;99.90;;;4.64;70.25;101239.41;5501979;25;20327;-85
2024/04/20 09:14:26;;;;;;;;;;;;;;;;;;;;;
2024/04/20 09:16:54;;;;;;;2.53;1.05;;;5.50;99.90;;;4.88;69.67;101246.06;5234103;26;21327;-86
2024/04/20 09:19:59;;;;;;;;;;;;;;;;;;;;;
2024/04/20 09:22:14;;;;;;;4.85;1.25;;;6.50;99.90;;;4.84;68.89;101264.41;5130586;26;20017;-84
2024/04/20 09:25:40;;;;;;;;;;;;;;;;;;;;;
2024/04/20 09:28:40;;;;;;;2.35;0.70;;;6.50;99.90;;;4.89;68.64;101257.34;5020759;27;20667;-84
2024/04/20 09:31:42;;;;;;;;;;;;;;;;;;;;;
2024/04/20 09:34:23;;;;;;;;;;;;;;;;;;;;;
2024/04/20 09:36:53;;;;;;;3.72;1.00;;;;;;;5.23;67.96;101268.13;4970073;28;20356;-83
2024/04/20 09:39:55;;;;;;;;;;;;;;;;;;;;;
2024/04/20 09:42:32;;;;;;;3.38;1.30;;;;;;;5.28;68.27;101281.13;4986602;27;20718;-83
2024/04/20 09:45:20;;;;;;;;;;;;;;;;;;;;;
2024/04/20 09:48:26;;;;;;;3.05;1.60;;;;;;;5.48;69.50;101289.47;5036450;27;20772;-84
2024/04/20 09:52:22;;;;;;;4.18;1.50;;;7.00;99.90;;;5.40;68.29;101294.00;5049346;27;20058;-85
2024/04/20 09:59:58;;;;;;;;;;;;;;;;;;;;;
2024/04/20 10:06:41;;;;;;;;;;;;;;;;;;;;;
2024/04/20 10:09:18;;;;;;;;;;;;;;;;;;;;;
2024/04/20 10:16:16;;;;;;;;;;;;;;;;;;;;;
2024/04/20 10:18:53;;;;;;;;;;;;;;;;;;;;;
2024/04/20 10:21:39;;;;;;;5.07;1.48;;;;;;;5.25;66.59;101322.97;4872917;28;21174;-83
2024/04/20 10:24:18;;;;;;;;;;;;;;;;;;;;;
2024/04/20 10:26:57;;;;;;;;;;;;;;;;;;;;;
2024/04/20 10:29:35;;;;;;;;;;;;;;;;;;;;;
2024/04/20 10:32:05;;;;;;;5.25;1.40;;;;;;;5.24;67.46;101337.75;4861762;28;21690;-83
2024/04/20 10:34:31;;;;;;;2.88;1.50;;;6.90;99.90;;;5.26;67.04;101342.94;4907629;21;1641200;-85
2024/04/20 10:37:13;;;;;;;;;;;;;;;;;;;;;
2024/04/20 10:39:46;;;;;;;2.78;1.40;;;;;;;5.48;67.37;101352.16;5308941;26;20689;-82
2024/04/20 10:42:27;;;;;;;;;;;;;;;;;;;;;
2024/04/20 10:45:30;;;;;;;;;;;;;;;;;;;;;
2024/04/20 10:48:04;;;;;;;2.92;1.20;;;;;;;5.70;63.69;101377.97;5042777;27;20583;-82
2024/04/20 10:53:54;;;;;;;;;;;;;;;;;;;;;
2024/04/20 10:56:54;;;;;;;5.24;1.78;;;;;;;5.35;65.11;101379.34;4621988;28;5003620;-85
2024/04/20 10:59:58;;;;;;;;;;;;;;;;;;;;;
2024/04/20 11:02:37;;;;;;;;;;;;;;;;;;;;;
2024/04/20 11:06:04;;;;;;;;;;;;;;;;;;;;;
2024/04/20 11:08:48;;;;;;;2.95;1.58;;;;;;;5.47;65.38;101391.41;4789025;28;1595704;-84
2024/04/20 11:12:12;;;;;;;;;;;;;;;;;;;;;
2024/04/20 11:14:46;;;;;;;3.38;1.42;;;7.10;99.90;;;5.50;66.42;101397.41;4879717;27;20508;-83
2024/04/20 11:23:38;;;;;;;;;;;;;;;;;;;;;
2024/04/20 11:26:15;;;;;;;1.60;1.08;;;7.10;99.90;;;5.59;64.29;101426.91;5189342;26;20898;-83
2024/04/20 11:28:55;;;;;;;2.47;1.52;;;;;;;5.54;66.32;101414.78;5103482;27;20018;-83
2024/04/20 11:32:04;;;;;;;4.30;1.60;;;;;;;5.50;66.23;101420.94;4995521;27;20010;-82
2024/04/20 11:34:55;;;;;;;;;;;;;;;;;;;;;
2024/04/20 11:37:35;;;;;;;;;;;;;;;;;;;;;
2024/04/20 11:40:13;;;;;;;;;;;;;;;;;;;;;
2024/04/20 11:42:55;;;;;;;;;;;;;;;;;;;;;
2024/04/20 11:45:27;;;;;;;2.38;1.60;;;;;;;5.86;65.17;101446.53;5080435;27;20779;-84
2024/04/20 11:48:04;;;;;;;4.00;1.92;;;7.30;99.90;;;5.81;63.70;101457.06;4971108;27;20001;-81
2024/04/20 11:51:00;;;;;;;;;;;;;;;;;;;;;
2024/04/20 11:56:38;;;;;;;2.45;1.50;;;7.70;99.90;;;6.32;63.54;101467.59;4931139;28;22740;-80
2024/04/20 11:59:15;;;;;;;2.63;1.60;;;;;;;5.94;62.10;101487.41;4957679;28;20030;-81
2024/04/20 12:02:20;;;;;;;;;;;;;;;;;;;;;
2024/04/20 12:05:03;;;;;;;;;;;;;;;;;;;;;
2024/04/20 12:07:45;;;;;;;;;;;;;;;;;;;;;
2024/04/20 12:10:12;;;;;;;2.25;1.55;;;7.60;99.90;;;6.15;62.04;101491.44;4960007;27;20034;-81
2024/04/20 12:12:38;;;;;;;3.97;1.50;;;7.60;99.90;;;5.95;62.58;101483.88;5103159;27;20022;-81
2024/04/20 12:15:05;;;;;;;2.78;1.48;;;7.50;99.90;;;5.80;62.53;101491.06;5167477;27;20007;-83
2024/04/20 12:17:37;;;;;;;2.63;1.55;;;7.50;99.90;;;5.94;62.18;101497.84;5205823;27;20018;-85
2024/04/20 12:20:03;;;;;;;2.65;1.73;;;7.60;99.90;;;6.12;61.68;101498.44;5235622;27;20431;-82
2024/04/20 12:22:30;;;;;;;3.35;1.80;;;7.50;99.90;;;5.98;61.02;101503.03;5201017;26;20000;-81
2024/04/20 12:24:58;;;;;;;6.15;1.58;;;7.50;99.90;;;5.81;61.44;101496.28;5215720;27;20012;-82
2024/04/20 12:27:34;;;;;;;2.35;1.70;;;7.40;99.90;;;5.58;62.76;101488.75;5236115;27;20028;-83
2024/04/20 12:30:00;;;;;;;;;;;7.30;99.90;;;5.61;62.52;101495.69;5206310;27;20039;-82
2024/04/20 12:32:26;;;;;;;2.90;1.67;;;7.20;99.90;;;5.71;64.20;101495.53;5245130;26;19939;-81
2024/04/20 12:35:00;;;;;;;4.53;1.60;;;7.30;99.90;;;5.86;63.81;101502.28;5195781;27;20064;-80
2024/04/20 12:37:26;;;;;;;2.53;1.55;;;7.30;99.90;;;5.82;62.01;101516.28;5211455;26;20051;-82
2024/04/20 12:39:52;;;;;;;2.70;1.60;;;7.30;99.90;;;5.70;61.57;101516.44;5207266;26;20018;-82
2024/04/20 12:42:18;;;;;;;2.67;1.60;;;7.30;99.90;;;5.71;63.03;101511.22;5181296;27;20020;-82
2024/04/20 12:44:49;;;;;;;5.75;1.80;;;7.30;99.90;;;5.92;63.07;101520.50;5194429;27;20074;-80
2024/04/20 12:47:15;;;;;;;2.35;1.80;;;7.30;99.90;;;5.79;62.04;101524.19;5228011;27;20025;-81
2024/04/20 12:49:41;;;;;;;2.78;1.50;;;7.30;99.90;;;5.72;61.93;101528.63;5205661;26;20007;-82
2024/04/20 12:52:07;;;;;;;2.28;1.50;;;7.30;99.90;;;5.89;62.14;101536.22;5220057;26;20010;-82
2024/04/20 12:54:33;;;;;;;5.15;2.20;;;7.40;99.90;;;6.18;62.95;101536.69;5212341;27;20045;-83
2024/04/20 12:57:04;;;;;;;4.57;2.30;;;7.50;99.90;;;6.15;61.81;101542.84;5193512;27;20099;-80
2024/04/20 12:59:30;;;;;;;1.90;1.60;;;7.60;99.90;;;6.23;62.14;101546.22;5184208;27;20011;-81
2024/04/20 13:01:55;;;;;;;2.45;1.52;;;7.60;99.90;;;5.98;61.53;101550.94;5139485;27;20069;-80
2024/04/20 13:04:22;;;;;;;4.05;1.60;;;7.50;99.90;;;5.87;61.50;101548.44;5206658;27;20002;-81
2024/04/20 13:06:48;;;;;;;2.17;1.30;;;6.50;99.90;;;5.80;62.71;101536.34;5196878;27;20006;-81
2024/04/20 13:09:15;;;;;;;6.05;1.80;;;7.30;99.90;;;5.56;61.75;101537.53;5197865;27;20398;-82
2024/04/20 13:11:45;;;;;;;2.45;1.58;;;7.20;99.90;;;5.53;61.92;101541.06;5170385;26;20005;-82
2024/04/20 13:14:11;;;;;;;5.05;1.40;;;7.20;99.90;;;5.65;60.78;101560.06;5238815;26;20007;-82
2024/04/20 13:16:37;;;;;;;4.40;2.70;;;7.30;99.90;;;5.89;61.12;101562.34;5209988;26;20026;-82
2024/04/20 13:19:05;;;;;;;3.20;1.65;;;7.30;99.90;;;5.96;62.20;101557.94;5225731;26;20382;-80
2024/04/20 13:21:36;;;;;;;2.78;1.90;;;7.40;99.90;;;6.05;62.09;101560.44;5229792;26;20046;-83
2024/04/20 13:24:02;;;;;;;3.22;1.92;;;7.40;99.90;;;5.98;61.40;101566.63;5184554;27;20364;-82
2024/04/20 13:26:28;;;;;;;3.10;1.60;;;7.50;99.90;;;5.81;61.63;101564.22;5172955;27;20010;-80
2024/04/20 13:28:54;;;;;;;2.92;2.03;;;7.40;99.90;;;5.78;60.94;101564.25;5190439;27;20094;-80
2024/04/20 13:31:20;;;;;;;2.95;1.90;;;7.40;99.90;;;5.90;62.12;101576.31;5209417;26;20052;-81
2024/04/20 13:33:46;;;;;;;3.42;2.08;;;7.50;99.90;;;5.99;61.90;101568.38;5251787;26;20091;-81